createdAt,value
2022-11-16T00:00:26.692Z,104
2022-11-16T00:01:32.326Z,96
2022-11-16T00:02:39.437Z,102
2022-11-16T00:03:45.045Z,105
2022-11-16T00:04:51.105Z,105
2022-11-16T00:05:57.179Z,105
2022-11-16T00:07:02.975Z,113
2022-11-16T00:08:10.611Z,108
2022-11-16T00:09:16.665Z,115
2022-11-16T00:10:25.473Z,112
2022-11-16T00:11:30.778Z,108
2022-11-16T00:12:36.042Z,108
2022-11-16T00:13:40.901Z,113
2022-11-16T00:14:45.704Z,112
2022-11-16T00:15:51.402Z,102
2022-11-16T00:16:56.572Z,109
2022-11-16T00:18:01.565Z,98
2022-11-16T00:19:06.548Z,102
2022-11-16T00:20:12.013Z,102
2022-11-16T00:21:17.361Z,105
2022-11-16T00:22:23.024Z,105
2022-11-16T00:23:28.946Z,96
2022-11-16T00:24:34.224Z,100
2022-11-16T00:25:39.477Z,105
2022-11-16T00:26:46.124Z,105
2022-11-16T00:27:51.192Z,105
2022-11-16T00:28:56.470Z,105
2022-11-16T00:30:01.889Z,110
2022-11-16T00:31:07.694Z,104
2022-11-16T00:32:12.365Z,104
2022-11-16T00:33:17.749Z,104
2022-11-16T00:34:23.427Z,101
2022-11-16T00:35:31.928Z,99
2022-11-16T00:36:44.769Z,94
2022-11-16T00:37:51.560Z,92
2022-11-16T00:38:58.672Z,95
2022-11-16T00:40:03.445Z,90
2022-11-16T00:41:08.798Z,88
2022-11-16T00:42:14.373Z,88
2022-11-16T00:43:20.465Z,86
2022-11-16T00:44:25.309Z,80
2022-11-16T00:45:31.088Z,82
2022-11-16T00:46:36.681Z,84
2022-11-16T00:47:42.408Z,71
2022-11-16T00:48:48.318Z,72
2022-11-16T00:49:53.021Z,78
2022-11-16T00:51:00.901Z,78
2022-11-16T00:52:06.553Z,78
2022-11-16T00:53:12.113Z,78
2022-11-16T00:54:17.604Z,74
2022-11-16T00:55:22.872Z,81
2022-11-16T00:56:28.753Z,85
2022-11-16T00:57:34.952Z,82
2022-11-16T00:58:40.681Z,79
2022-11-16T00:59:46.404Z,80
2022-11-16T01:00:51.699Z,76
2022-11-16T01:01:57.052Z,75
2022-11-16T01:03:02.051Z,71
2022-11-16T01:04:08.382Z,65
2022-11-16T01:05:13.302Z,72
2022-11-16T01:06:18.473Z,63
2022-11-16T01:07:25.120Z,69
2022-11-16T01:08:36.358Z,70
2022-11-16T01:09:40.872Z,66
2022-11-16T01:10:46.253Z,58
2022-11-16T01:11:51.646Z,64
2022-11-16T01:13:01.693Z,64
2022-11-16T01:14:07.353Z,55
2022-11-16T01:15:13.270Z,57
2022-11-16T01:16:20.800Z,57
2022-11-16T01:17:28.564Z,57
2022-11-16T01:18:36.175Z,57
2022-11-16T01:19:41.032Z,57
2022-11-16T01:20:46.789Z,57
2022-11-16T01:21:55.095Z,76
2022-11-16T01:23:00.833Z,63
2022-11-16T01:24:07.000Z,67
2022-11-16T01:25:11.966Z,59
2022-11-16T01:26:16.954Z,57
2022-11-16T01:27:21.695Z,58
2022-11-16T01:28:26.796Z,58
2022-11-16T01:29:31.252Z,58
2022-11-16T01:30:35.940Z,68
2022-11-16T01:31:41.392Z,60
2022-11-16T01:32:46.248Z,60
2022-11-16T01:33:51.377Z,60
2022-11-16T01:34:56.320Z,60
2022-11-16T01:36:01.534Z,60
2022-11-16T01:37:06.502Z,63
2022-11-16T01:38:11.235Z,68
2022-11-16T01:39:16.129Z,64
2022-11-16T01:40:20.905Z,64
2022-11-16T01:41:25.389Z,69
2022-11-16T01:42:29.989Z,70
2022-11-16T01:43:34.728Z,75
2022-11-16T01:44:49.981Z,71
2022-11-16T01:46:00.652Z,78
2022-11-16T01:47:06.175Z,69
2022-11-16T01:48:11.246Z,81
2022-11-16T01:49:15.832Z,79
2022-11-16T01:50:20.316Z,79
2022-11-16T01:51:25.389Z,78
2022-11-16T01:52:30.277Z,75
2022-11-16T01:53:35.493Z,74
2022-11-16T01:54:40.420Z,74
2022-11-16T01:55:45.320Z,74
2022-11-16T01:56:50.009Z,74
2022-11-16T01:57:54.865Z,74
2022-11-16T01:58:59.632Z,74
2022-11-16T02:00:04.321Z,74
2022-11-16T02:01:09.255Z,74
2022-11-16T02:02:14.132Z,81
2022-11-16T02:03:19.092Z,82
2022-11-16T02:04:24.136Z,76
2022-11-16T02:05:29.069Z,76
2022-11-16T02:06:41.263Z,69
2022-11-16T02:07:46.070Z,68
2022-11-16T02:08:56.021Z,68
2022-11-16T02:10:15.781Z,68
2022-11-16T02:11:20.982Z,68
2022-11-16T02:12:30.900Z,74
2022-11-16T02:13:41.574Z,64
2022-11-16T02:14:51.086Z,66
2022-11-16T02:16:00.508Z,68
2022-11-16T02:17:15.378Z,59
2022-11-16T02:18:22.644Z,65
2022-11-16T02:19:37.453Z,60
2022-11-16T02:20:48.428Z,55
2022-11-16T02:22:01.493Z,60
2022-11-16T02:23:16.743Z,61
2022-11-16T02:24:26.588Z,60
2022-11-16T02:25:41.766Z,58
2022-11-16T02:26:51.280Z,57
2022-11-16T02:28:01.133Z,57
2022-11-16T02:29:16.178Z,52
2022-11-16T02:30:26.317Z,49
2022-11-16T02:31:31.484Z,49
2022-11-16T02:32:36.324Z,50
2022-11-16T02:33:51.184Z,56
2022-11-16T02:34:56.244Z,55
2022-11-16T02:36:11.371Z,46
2022-11-16T02:37:16.128Z,55
2022-11-16T02:38:20.848Z,52
2022-11-16T02:39:25.043Z,51
2022-11-16T02:40:29.631Z,53
2022-11-16T02:41:34.279Z,55
2022-11-16T02:42:38.841Z,52
2022-11-16T02:43:43.766Z,52
2022-11-16T02:44:48.414Z,58
2022-11-16T02:45:53.180Z,58
2022-11-16T02:46:57.811Z,58
2022-11-16T02:48:05.776Z,58
2022-11-16T02:49:10.394Z,53
2022-11-16T02:50:15.453Z,53
2022-11-16T02:51:20.249Z,53
2022-11-16T02:52:24.683Z,57
2022-11-16T02:53:29.544Z,57
2022-11-16T02:54:34.063Z,57
2022-11-16T02:55:38.779Z,57
2022-11-16T02:56:43.411Z,57
2022-11-16T02:57:58.391Z,61
2022-11-16T02:59:03.288Z,53
2022-11-16T03:00:08.147Z,60
2022-11-16T03:01:18.316Z,59
2022-11-16T03:02:23.340Z,54
2022-11-16T03:03:34.388Z,57
2022-11-16T03:04:39.400Z,59
2022-11-16T03:05:48.989Z,59
2022-11-16T03:06:58.664Z,52
2022-11-16T03:08:03.351Z,59
2022-11-16T03:09:11.203Z,55
2022-11-16T03:10:16.363Z,51
2022-11-16T03:11:26.499Z,54
2022-11-16T03:12:36.900Z,53
2022-11-16T03:13:41.539Z,50
2022-11-16T03:14:46.139Z,50
2022-11-16T03:15:55.583Z,47
2022-11-16T03:17:01.107Z,50
2022-11-16T03:18:05.695Z,49
2022-11-16T03:19:10.431Z,44
2022-11-16T03:20:15.515Z,44
2022-11-16T03:21:23.560Z,44
2022-11-16T03:22:38.573Z,49
2022-11-16T03:23:49.699Z,49
2022-11-16T03:24:54.189Z,49
2022-11-16T03:25:58.755Z,44
2022-11-16T03:27:03.696Z,46
2022-11-16T03:28:18.628Z,43
2022-11-16T03:29:23.363Z,45
2022-11-16T03:30:28.284Z,44
2022-11-16T03:31:32.703Z,45
2022-11-16T03:32:37.351Z,45
2022-11-16T03:33:46.796Z,41
2022-11-16T03:34:51.656Z,44
2022-11-16T03:35:56.499Z,37
2022-11-16T03:37:03.631Z,36
2022-11-16T03:38:08.344Z,37
2022-11-16T03:39:13.296Z,36
2022-11-16T03:40:17.801Z,30
2022-11-16T03:41:22.256Z,28
2022-11-16T03:42:27.067Z,32
2022-11-16T03:43:31.992Z,31
2022-11-16T03:44:36.399Z,31
2022-11-16T03:45:40.792Z,30
2022-11-16T03:46:45.727Z,29
2022-11-16T03:47:50.776Z,36
2022-11-16T03:48:55.336Z,26
2022-11-16T03:49:59.987Z,32
2022-11-16T03:51:04.363Z,31
2022-11-16T03:52:09.302Z,34
2022-11-16T03:53:13.783Z,34
2022-11-16T03:54:18.471Z,40
2022-11-16T03:55:23.287Z,33
2022-11-16T03:56:28.247Z,33
2022-11-16T03:57:32.899Z,33
2022-11-16T03:58:38.112Z,33
2022-11-16T03:59:43.015Z,35
2022-11-16T04:00:48.632Z,33
2022-11-16T04:01:53.799Z,33
2022-11-16T04:02:58.632Z,29
2022-11-16T04:04:03.521Z,33
2022-11-16T04:05:08.471Z,33
2022-11-16T04:06:19.014Z,25
2022-11-16T04:07:28.658Z,31
2022-11-16T04:08:38.192Z,34
2022-11-16T04:09:47.875Z,34
2022-11-16T04:10:57.597Z,41
2022-11-16T04:12:07.391Z,36
2022-11-16T04:13:17.574Z,36
2022-11-16T04:14:30.690Z,39
2022-11-16T04:15:40.522Z,36
2022-11-16T04:16:50.098Z,34
2022-11-16T04:17:59.624Z,31
2022-11-16T04:19:09.614Z,36
2022-11-16T04:20:20.126Z,35
2022-11-16T04:21:30.002Z,31
2022-11-16T04:22:39.644Z,34
2022-11-16T04:23:54.226Z,33
2022-11-16T04:25:04.063Z,33
2022-11-16T04:26:11.968Z,34
2022-11-16T04:27:16.814Z,30
2022-11-16T04:28:26.682Z,28
2022-11-16T04:29:31.318Z,28
2022-11-16T04:30:36.244Z,28
2022-11-16T04:31:51.579Z,29
2022-11-16T04:33:01.758Z,31
2022-11-16T04:34:11.875Z,32
2022-11-16T04:35:21.991Z,33
2022-11-16T04:36:31.727Z,33
2022-11-16T04:37:41.643Z,33
2022-11-16T04:38:51.363Z,33
2022-11-16T04:39:56.236Z,44
2022-11-16T04:41:01.084Z,57
2022-11-16T04:42:05.564Z,57
2022-11-16T04:43:17.198Z,57
2022-11-16T04:44:26.011Z,57
2022-11-16T04:45:26.963Z,57
2022-11-16T04:46:37.211Z,57
2022-11-16T04:47:47.275Z,57
2022-11-16T04:48:52.214Z,57
2022-11-16T04:49:56.879Z,57
2022-11-16T04:51:01.623Z,65
2022-11-16T04:52:06.828Z,61
2022-11-16T04:53:11.745Z,60
2022-11-16T04:54:16.827Z,54
2022-11-16T04:55:21.226Z,54
2022-11-16T04:56:25.815Z,55
2022-11-16T04:57:30.459Z,55
2022-11-16T04:58:35.541Z,55
2022-11-16T04:59:39.927Z,55
2022-11-16T05:00:44.819Z,55
2022-11-16T05:01:49.272Z,55
2022-11-16T05:03:01.452Z,54
2022-11-16T05:04:04.285Z,54
2022-11-16T05:05:09.440Z,54
2022-11-16T05:06:14.113Z,54
2022-11-16T05:07:18.925Z,52
2022-11-16T05:08:23.707Z,50
2022-11-16T05:09:28.497Z,50
2022-11-16T05:10:33.372Z,47
2022-11-16T05:11:37.791Z,46
2022-11-16T05:12:42.468Z,46
2022-11-16T05:13:47.500Z,46
2022-11-16T05:14:52.064Z,40
2022-11-16T05:15:56.907Z,36
2022-11-16T05:17:01.535Z,38
2022-11-16T05:18:06.643Z,35
2022-11-16T05:19:11.149Z,34
2022-11-16T05:20:21.022Z,26
2022-11-16T05:21:30.879Z,36
2022-11-16T05:22:35.651Z,35
2022-11-16T05:23:40.732Z,31
2022-11-16T05:24:50.925Z,31
2022-11-16T05:25:55.883Z,34
2022-11-16T05:27:00.940Z,29
2022-11-16T05:28:06.023Z,38
2022-11-16T05:29:11.008Z,33
2022-11-16T05:30:15.904Z,26
2022-11-16T05:31:21.540Z,31
2022-11-16T05:32:26.903Z,34
2022-11-16T05:33:32.664Z,28
2022-11-16T05:34:38.076Z,33
2022-11-16T05:35:43.280Z,32
2022-11-16T05:36:48.347Z,34
2022-11-16T05:37:54.565Z,36
2022-11-16T05:38:59.177Z,37
2022-11-16T05:40:04.485Z,45
2022-11-16T05:41:09.868Z,37
2022-11-16T05:42:14.656Z,46
2022-11-16T05:43:19.281Z,43
2022-11-16T05:44:24.184Z,51
2022-11-16T05:45:28.853Z,50
2022-11-16T05:46:33.603Z,52
2022-11-16T05:47:38.160Z,52
2022-11-16T05:48:42.568Z,52
2022-11-16T05:49:47.479Z,52
2022-11-16T05:50:52.416Z,52
2022-11-16T05:52:01.109Z,52
2022-11-16T05:53:05.564Z,52
2022-11-16T05:54:10.296Z,60
2022-11-16T05:55:15.376Z,64
2022-11-16T05:56:20.154Z,60
2022-11-16T05:57:24.651Z,60
2022-11-16T05:58:29.236Z,60
2022-11-16T05:59:33.771Z,60
2022-11-16T06:00:38.293Z,63
2022-11-16T06:01:43.041Z,63
2022-11-16T06:02:47.217Z,49
2022-11-16T06:03:52.037Z,59
2022-11-16T06:04:56.972Z,53
2022-11-16T06:06:01.943Z,58
2022-11-16T06:07:06.959Z,47
2022-11-16T06:08:21.573Z,50
2022-11-16T06:09:26.239Z,47
2022-11-16T06:10:30.880Z,54
2022-11-16T06:11:36.172Z,52
2022-11-16T06:12:39.973Z,49
2022-11-16T06:13:44.668Z,46
2022-11-16T06:14:49.533Z,47
2022-11-16T06:15:54.666Z,49
2022-11-16T06:16:59.316Z,50
2022-11-16T06:18:03.836Z,44
2022-11-16T06:19:08.535Z,48
2022-11-16T06:20:12.952Z,49
2022-11-16T06:21:17.577Z,48
2022-11-16T06:22:22.272Z,48
2022-11-16T06:23:26.852Z,50
2022-11-16T06:24:32.098Z,46
2022-11-16T06:25:36.504Z,55
2022-11-16T06:26:40.982Z,50
2022-11-16T06:27:45.672Z,50
2022-11-16T06:28:50.321Z,44
2022-11-16T06:29:55.038Z,60
2022-11-16T06:30:59.935Z,60
2022-11-16T06:32:04.587Z,62
2022-11-16T06:33:09.148Z,62
2022-11-16T06:34:13.636Z,67
2022-11-16T06:35:18.259Z,62
2022-11-16T06:36:23.244Z,68
2022-11-16T06:37:28.247Z,63
2022-11-16T06:38:33.269Z,61
2022-11-16T06:39:37.219Z,61
2022-11-16T06:40:42.032Z,61
2022-11-16T06:41:46.808Z,67
2022-11-16T06:42:51.871Z,65
2022-11-16T06:43:56.636Z,62
2022-11-16T06:45:01.221Z,61
2022-11-16T06:46:06.044Z,59
2022-11-16T06:47:10.414Z,64
2022-11-16T06:48:15.345Z,55
2022-11-16T06:49:19.952Z,56
2022-11-16T06:50:24.768Z,54
2022-11-16T06:51:29.667Z,52
2022-11-16T06:52:34.523Z,56
2022-11-16T06:53:39.267Z,56
2022-11-16T06:54:44.424Z,51
2022-11-16T06:55:49.171Z,46
2022-11-16T06:56:53.766Z,48
2022-11-16T06:57:58.448Z,57
2022-11-16T06:59:02.968Z,56
2022-11-16T07:00:07.852Z,54
2022-11-16T07:01:13.009Z,48
2022-11-16T07:02:17.420Z,46
2022-11-16T07:03:21.849Z,52
2022-11-16T07:04:26.417Z,58
2022-11-16T07:05:31.212Z,52
2022-11-16T07:06:35.892Z,53
2022-11-16T07:07:40.652Z,54
2022-11-16T07:08:45.482Z,56
2022-11-16T07:09:50.351Z,51
2022-11-16T07:10:57.160Z,59
2022-11-16T07:11:59.933Z,52
2022-11-16T07:13:04.809Z,59
2022-11-16T07:14:09.320Z,56
2022-11-16T07:15:13.867Z,59
2022-11-16T07:16:18.468Z,61
2022-11-16T07:17:23.219Z,56
2022-11-16T07:18:28.220Z,57
2022-11-16T07:19:38.607Z,60
2022-11-16T07:20:43.167Z,61
2022-11-16T07:21:47.508Z,63
2022-11-16T07:22:52.555Z,55
2022-11-16T07:23:57.376Z,57
2022-11-16T07:25:02.068Z,71
2022-11-16T07:26:07.149Z,60
2022-11-16T07:27:12.157Z,65
2022-11-16T07:28:16.595Z,71
2022-11-16T07:29:21.348Z,65
2022-11-16T07:30:26.028Z,65
2022-11-16T07:31:30.941Z,66
2022-11-16T07:32:35.276Z,65
2022-11-16T07:33:39.979Z,77
2022-11-16T07:34:44.490Z,80
2022-11-16T07:35:48.882Z,84
2022-11-16T07:36:53.635Z,80
2022-11-16T07:37:58.068Z,84
2022-11-16T07:39:02.836Z,88
2022-11-16T07:40:07.800Z,88
2022-11-16T07:41:12.940Z,80
2022-11-16T07:42:17.312Z,89
2022-11-16T07:43:22.471Z,95
2022-11-16T07:44:27.360Z,94
2022-11-16T07:45:32.495Z,98
2022-11-16T07:46:46.334Z,101
2022-11-16T07:47:42.208Z,103
2022-11-16T07:48:47.216Z,105
2022-11-16T07:49:52.298Z,105
2022-11-16T07:50:57.464Z,109
2022-11-16T07:52:04.842Z,110
2022-11-16T07:53:10.007Z,111
2022-11-16T07:54:14.845Z,112
2022-11-16T07:55:19.800Z,111
2022-11-16T07:56:24.196Z,111
2022-11-16T07:57:28.819Z,117
2022-11-16T07:58:33.969Z,115
2022-11-16T07:59:38.514Z,113
2022-11-16T08:00:43.155Z,117
2022-11-16T08:01:47.775Z,122
2022-11-16T08:02:52.165Z,118
2022-11-16T08:03:56.821Z,115
2022-11-16T08:05:01.441Z,121
2022-11-16T08:06:06.572Z,116
2022-11-16T08:07:14.010Z,113
2022-11-16T08:08:19.291Z,115
2022-11-16T08:09:23.854Z,117
2022-11-16T08:10:28.926Z,118
2022-11-16T08:11:33.687Z,120
2022-11-16T08:12:37.932Z,121
2022-11-16T08:13:42.510Z,119
2022-11-16T08:14:47.360Z,115
2022-11-16T08:15:52.307Z,115
2022-11-16T08:16:57.125Z,119
2022-11-16T08:18:01.360Z,114
2022-11-16T08:19:06.319Z,128
2022-11-16T08:20:10.684Z,113
2022-11-16T08:21:15.159Z,119
2022-11-16T08:22:19.835Z,116
2022-11-16T08:23:24.844Z,113
2022-11-16T08:24:29.604Z,118
2022-11-16T08:25:34.019Z,129
2022-11-16T08:26:38.777Z,125
2022-11-16T08:27:43.823Z,125
2022-11-16T08:28:48.886Z,121
2022-11-16T08:29:53.811Z,123
2022-11-16T08:30:58.823Z,124
2022-11-16T08:32:03.404Z,127
2022-11-16T08:33:07.659Z,118
2022-11-16T08:34:12.310Z,120
2022-11-16T08:35:16.968Z,128
2022-11-16T08:36:21.932Z,126
2022-11-16T08:37:26.339Z,118
2022-11-16T08:38:31.133Z,127
2022-11-16T08:39:35.447Z,115
2022-11-16T08:40:40.035Z,113
2022-11-16T08:41:44.739Z,114
2022-11-16T08:42:49.416Z,109
2022-11-16T08:43:54.076Z,109
2022-11-16T08:44:58.932Z,109
2022-11-16T08:46:03.564Z,110
2022-11-16T08:47:08.358Z,106
2022-11-16T08:48:13.286Z,106
2022-11-16T08:49:17.842Z,99
2022-11-16T08:50:22.310Z,104
2022-11-16T08:51:27.056Z,104
2022-11-16T08:52:31.839Z,95
2022-11-16T08:53:36.896Z,101
2022-11-16T08:54:41.462Z,98
2022-11-16T08:55:46.515Z,101
2022-11-16T08:56:51.135Z,98
2022-11-16T08:57:55.915Z,91
2022-11-16T08:59:00.547Z,98
2022-11-16T09:00:04.955Z,98
2022-11-16T09:01:10.171Z,91
2022-11-16T09:02:15.372Z,90
2022-11-16T09:03:19.832Z,84
2022-11-16T09:04:24.598Z,79
2022-11-16T09:05:29.079Z,82
2022-11-16T09:06:33.683Z,88
2022-11-16T09:07:38.266Z,85
2022-11-16T09:08:42.756Z,76
2022-11-16T09:09:47.744Z,81
2022-11-16T09:10:52.687Z,70
2022-11-16T09:11:57.258Z,74
2022-11-16T09:13:02.006Z,72
2022-11-16T09:14:06.848Z,65
2022-11-16T09:15:11.558Z,70
2022-11-16T09:16:15.774Z,64
2022-11-16T09:17:23.209Z,63
2022-11-16T09:18:25.278Z,57
2022-11-16T09:19:29.807Z,61
2022-11-16T09:20:34.503Z,59
2022-11-16T09:21:39.008Z,57
2022-11-16T09:22:43.727Z,54
2022-11-16T09:23:48.266Z,54
2022-11-16T09:24:52.630Z,53
2022-11-16T09:25:57.858Z,57
2022-11-16T09:27:02.215Z,47
2022-11-16T09:28:06.731Z,48
2022-11-16T09:29:11.459Z,44
2022-11-16T09:30:16.144Z,45
2022-11-16T09:31:23.505Z,42
2022-11-16T09:32:25.293Z,39
2022-11-16T09:33:30.060Z,40
2022-11-16T09:34:34.522Z,49
2022-11-16T09:35:39.154Z,41
2022-11-16T09:36:43.861Z,38
2022-11-16T09:37:49.151Z,36
2022-11-16T09:39:19.388Z,39
2022-11-16T09:39:58.362Z,45
2022-11-16T09:41:03.022Z,33
2022-11-16T09:42:10.596Z,42
2022-11-16T09:43:25.678Z,42
2022-11-16T09:44:38.188Z,36
2022-11-16T09:45:45.767Z,38
2022-11-16T09:47:00.686Z,43
2022-11-16T09:48:06.326Z,45
2022-11-16T09:49:17.090Z,36
2022-11-16T09:50:21.628Z,39
2022-11-16T09:51:29.415Z,35
2022-11-16T09:52:34.254Z,38
2022-11-16T09:53:39.150Z,40
2022-11-16T09:54:43.447Z,36
2022-11-16T09:55:48.483Z,38
2022-11-16T09:56:55.914Z,37
2022-11-16T09:58:00.223Z,36
2022-11-16T09:59:05.160Z,28
2022-11-16T10:00:10.394Z,26
2022-11-16T10:01:18.366Z,25
2022-11-16T10:02:27.814Z,25
2022-11-16T10:03:33.172Z,25
2022-11-16T10:04:37.946Z,27
2022-11-16T10:05:48.258Z,28
2022-11-16T10:06:56.309Z,25
2022-11-16T10:08:00.970Z,31
2022-11-16T10:09:13.599Z,33
2022-11-16T10:10:18.446Z,25
2022-11-16T10:11:26.043Z,25
2022-11-16T10:12:35.750Z,28
2022-11-16T10:13:45.339Z,30
2022-11-16T10:14:55.182Z,25
2022-11-16T10:16:08.359Z,25
2022-11-16T10:17:18.247Z,25
2022-11-16T10:18:31.609Z,32
2022-11-16T10:19:40.019Z,36
2022-11-16T10:20:49.419Z,33
2022-11-16T10:21:59.116Z,37
2022-11-16T10:23:08.943Z,29
2022-11-16T10:24:18.402Z,26
2022-11-16T10:25:30.966Z,32
2022-11-16T10:26:44.011Z,29
2022-11-16T10:27:53.714Z,29
2022-11-16T10:29:04.239Z,31
2022-11-16T10:30:20.009Z,26
2022-11-16T10:31:25.163Z,26
2022-11-16T10:32:34.962Z,34
2022-11-16T10:33:42.045Z,37
2022-11-16T10:34:46.864Z,32
2022-11-16T10:35:59.394Z,39
2022-11-16T10:37:10.704Z,37
2022-11-16T10:38:18.946Z,34
2022-11-16T10:39:26.450Z,32
2022-11-16T10:40:30.997Z,46
2022-11-16T10:41:38.086Z,42
2022-11-16T10:42:45.126Z,33
2022-11-16T10:43:54.971Z,37
2022-11-16T10:44:59.821Z,35
2022-11-16T10:46:12.675Z,36
2022-11-16T10:47:29.465Z,36
2022-11-16T10:48:37.779Z,33
2022-11-16T10:49:48.458Z,35
2022-11-16T10:50:53.180Z,34
2022-11-16T10:51:57.550Z,39
2022-11-16T10:53:02.196Z,33
2022-11-16T10:54:06.686Z,33
2022-11-16T10:55:14.574Z,30
2022-11-16T10:56:18.945Z,30
2022-11-16T10:57:28.666Z,29
2022-11-16T10:58:43.210Z,30
2022-11-16T10:59:58.238Z,35
2022-11-16T11:01:03.071Z,34
2022-11-16T11:02:07.256Z,35
2022-11-16T11:03:22.562Z,38
2022-11-16T11:04:32.397Z,38
2022-11-16T11:05:37.171Z,35
2022-11-16T11:06:46.999Z,31
2022-11-16T11:07:59.530Z,36
2022-11-16T11:09:11.438Z,45
2022-11-16T11:10:21.495Z,41
2022-11-16T11:11:25.951Z,38
2022-11-16T11:12:36.010Z,48
2022-11-16T11:13:40.979Z,44
2022-11-16T11:14:46.050Z,43
2022-11-16T11:15:59.372Z,42
2022-11-16T11:17:14.386Z,42
2022-11-16T11:18:19.156Z,42
2022-11-16T11:19:26.434Z,40
2022-11-16T11:20:31.206Z,47
2022-11-16T11:21:36.171Z,44
2022-11-16T11:22:41.112Z,45
2022-11-16T11:24:06.105Z,51
2022-11-16T11:25:01.400Z,43
2022-11-16T11:26:06.546Z,48
2022-11-16T11:27:12.056Z,49
2022-11-16T11:28:16.646Z,59
2022-11-16T11:29:21.004Z,55
2022-11-16T11:30:28.590Z,55
2022-11-16T11:31:33.799Z,62
2022-11-16T11:32:41.534Z,69
2022-11-16T11:33:46.035Z,64
2022-11-16T11:35:02.654Z,62
2022-11-16T11:36:11.377Z,70
2022-11-16T11:37:24.755Z,72
2022-11-16T11:38:35.670Z,71
2022-11-16T11:39:40.547Z,69
2022-11-16T11:40:45.747Z,78
2022-11-16T11:41:55.382Z,79
2022-11-16T11:43:03.066Z,70
2022-11-16T11:44:07.454Z,66
2022-11-16T11:45:15.223Z,80
2022-11-16T11:46:19.970Z,86
2022-11-16T11:48:35.070Z,79
2022-11-16T11:49:42.611Z,83
2022-11-16T11:50:47.377Z,76
2022-11-16T11:51:54.885Z,76
2022-11-16T11:52:59.915Z,78
2022-11-16T11:54:14.921Z,79
2022-11-16T11:55:25.157Z,84
2022-11-16T11:56:30.075Z,82
2022-11-16T11:57:34.717Z,81
2022-11-16T11:58:39.349Z,75
2022-11-16T11:59:44.245Z,95
2022-11-16T12:00:49.493Z,86
2022-11-16T12:01:56.971Z,89
2022-11-16T12:03:09.657Z,94
2022-11-16T12:04:19.900Z,89
2022-11-16T12:05:29.653Z,95
2022-11-16T12:06:44.574Z,90
2022-11-16T12:07:55.972Z,92
2022-11-16T12:09:09.016Z,94
2022-11-16T12:10:23.569Z,95
2022-11-16T12:11:33.250Z,94
2022-11-16T12:12:42.997Z,97
2022-11-16T12:13:52.488Z,86
2022-11-16T12:15:02.308Z,94
2022-11-16T12:16:12.145Z,96
2022-11-16T12:17:26.855Z,102
2022-11-16T12:18:36.688Z,100
2022-11-16T12:19:51.974Z,98
2022-11-16T12:21:04.683Z,91
2022-11-16T12:22:14.769Z,93
2022-11-16T12:23:22.548Z,103
2022-11-16T12:24:33.586Z,95
2022-11-16T12:25:48.494Z,94
2022-11-16T12:26:56.255Z,94
2022-11-16T12:28:06.640Z,100
2022-11-16T12:29:22.485Z,95
2022-11-16T12:30:31.349Z,93
2022-11-16T12:31:35.965Z,102
2022-11-16T12:32:40.637Z,97
2022-11-16T12:33:55.728Z,105
2022-11-16T12:35:03.525Z,95
2022-11-16T12:36:08.736Z,97
2022-11-16T12:37:23.651Z,99
2022-11-16T12:38:36.788Z,98
2022-11-16T12:39:51.737Z,101
2022-11-16T12:41:06.434Z,95
2022-11-16T12:42:21.121Z,94
2022-11-16T12:43:33.909Z,93
2022-11-16T12:44:46.445Z,99
2022-11-16T12:45:56.688Z,97
2022-11-16T12:47:11.560Z,103
2022-11-16T12:48:24.253Z,105
2022-11-16T12:49:34.510Z,114
2022-11-16T12:50:45.749Z,111
2022-11-16T12:51:50.365Z,98
2022-11-16T12:52:59.924Z,103
2022-11-16T12:54:09.710Z,106
2022-11-16T12:55:26.233Z,105
2022-11-16T12:56:31.244Z,117
2022-11-16T12:57:45.936Z,109
2022-11-16T12:58:55.473Z,113
2022-11-16T13:00:10.255Z,110
2022-11-16T13:01:17.320Z,114
2022-11-16T13:02:31.045Z,118
2022-11-16T13:03:46.640Z,109
2022-11-16T13:04:54.429Z,117
2022-11-16T13:05:59.304Z,111
2022-11-16T13:07:07.956Z,101
2022-11-16T13:08:11.354Z,109
2022-11-16T13:09:24.064Z,114
2022-11-16T13:10:31.781Z,114
2022-11-16T13:11:36.964Z,107
2022-11-16T13:12:41.697Z,105
2022-11-16T13:13:51.644Z,109
2022-11-16T13:14:50.913Z,104
2022-11-16T13:15:55.377Z,113
2022-11-16T13:17:00.168Z,113
2022-11-16T13:18:04.466Z,113
2022-11-16T13:19:09.294Z,106
2022-11-16T13:20:14.892Z,110
2022-11-16T13:21:26.421Z,105
2022-11-16T13:22:36.539Z,106
2022-11-16T13:23:40.980Z,99
2022-11-16T13:24:45.400Z,105
2022-11-16T13:25:55.216Z,101
2022-11-16T13:26:59.825Z,100
2022-11-16T13:28:09.528Z,101
2022-11-16T13:29:22.181Z,99
2022-11-16T13:30:32.005Z,98
2022-11-16T13:31:36.373Z,96
2022-11-16T13:32:41.652Z,96
2022-11-16T13:33:51.571Z,98
2022-11-16T13:35:00.812Z,103
2022-11-16T13:36:19.987Z,106
2022-11-16T13:37:33.581Z,94
2022-11-16T13:38:38.484Z,115
2022-11-16T13:39:51.212Z,100
2022-11-16T13:40:59.577Z,101
2022-11-16T13:42:11.981Z,99
2022-11-16T13:43:16.668Z,103
2022-11-16T13:44:22.014Z,98
2022-11-16T13:45:26.461Z,95
2022-11-16T13:46:57.605Z,92
2022-11-16T13:47:47.841Z,93
2022-11-16T13:48:56.025Z,104
2022-11-16T13:50:00.920Z,100
2022-11-16T13:51:05.756Z,94
2022-11-16T13:52:23.511Z,91
2022-11-16T13:55:37.099Z,90
2022-11-16T13:56:42.004Z,82
2022-11-16T13:57:49.041Z,78
2022-11-16T13:58:53.672Z,80
2022-11-16T13:59:58.382Z,74
2022-11-16T14:01:03.255Z,76
2022-11-16T14:02:08.657Z,79
2022-11-16T14:03:23.598Z,79
2022-11-16T14:04:32.044Z,72
2022-11-16T14:05:37.797Z,77
2022-11-16T14:06:43.033Z,65
2022-11-16T14:07:47.717Z,75
2022-11-16T14:08:52.172Z,65
2022-11-16T14:09:57.414Z,66
2022-11-16T14:11:02.536Z,74
2022-11-16T14:12:07.132Z,69
2022-11-16T14:13:14.623Z,66
2022-11-16T14:14:29.445Z,71
2022-11-16T14:15:44.138Z,72
2022-11-16T14:16:49.008Z,70
2022-11-16T14:17:53.485Z,69
2022-11-16T14:18:58.028Z,71
2022-11-16T14:20:02.536Z,64
2022-11-16T14:21:07.072Z,73
2022-11-16T14:22:21.880Z,64
2022-11-16T14:23:26.713Z,69
2022-11-16T14:24:32.159Z,66
2022-11-16T14:25:41.991Z,74
2022-11-16T14:26:46.687Z,62
2022-11-16T14:27:54.225Z,65
2022-11-16T14:29:03.682Z,67
2022-11-16T14:30:08.361Z,60
2022-11-16T14:31:20.524Z,58
2022-11-16T14:32:27.991Z,58
2022-11-16T14:33:33.734Z,54
2022-11-16T14:34:38.143Z,56
2022-11-16T14:35:42.527Z,58
2022-11-16T14:36:46.963Z,55
2022-11-16T14:37:52.259Z,59
2022-11-16T14:39:04.563Z,54
2022-11-16T14:40:20.059Z,55
2022-11-16T14:41:25.785Z,58
2022-11-16T14:42:37.986Z,56
2022-11-16T14:43:35.770Z,56
2022-11-16T14:44:40.934Z,54
2022-11-16T14:45:46.479Z,51
2022-11-16T14:46:54.605Z,46
2022-11-16T14:47:59.956Z,54
2022-11-16T14:49:04.874Z,47
2022-11-16T14:50:09.527Z,45
2022-11-16T14:51:19.455Z,48
2022-11-16T14:52:23.731Z,42
2022-11-16T14:53:29.587Z,45
2022-11-16T14:54:34.563Z,39
2022-11-16T14:55:39.272Z,40
2022-11-16T14:56:46.956Z,39
2022-11-16T14:57:56.463Z,41
2022-11-16T14:59:11.521Z,41
2022-11-16T15:00:18.879Z,44
2022-11-16T15:01:23.903Z,35
2022-11-16T15:02:31.312Z,36
2022-11-16T15:03:36.288Z,37
2022-11-16T15:04:46.692Z,40
2022-11-16T15:05:51.797Z,56
2022-11-16T15:07:02.617Z,43
2022-11-16T15:08:09.300Z,43
2022-11-16T15:09:20.773Z,43
2022-11-16T15:10:30.399Z,35
2022-11-16T15:11:34.928Z,49
2022-11-16T15:12:44.542Z,42
2022-11-16T15:13:48.906Z,40
2022-11-16T15:14:53.839Z,44
2022-11-16T15:15:58.502Z,47
2022-11-16T15:17:08.925Z,46
2022-11-16T15:18:13.508Z,47
2022-11-16T15:19:18.400Z,53
2022-11-16T15:20:23.014Z,45
2022-11-16T15:21:30.424Z,50
2022-11-16T15:22:36.170Z,49
2022-11-16T15:23:40.875Z,44
2022-11-16T15:24:48.281Z,43
2022-11-16T15:25:58.931Z,49
2022-11-16T15:27:03.828Z,46
2022-11-16T15:28:09.375Z,45
2022-11-16T15:29:22.226Z,37
2022-11-16T15:30:27.958Z,42
2022-11-16T15:31:35.149Z,44
2022-11-16T15:32:39.780Z,44
2022-11-16T15:33:44.623Z,45
2022-11-16T15:34:51.161Z,56
2022-11-16T15:35:55.964Z,42
2022-11-16T15:37:00.450Z,38
2022-11-16T15:38:05.639Z,42
2022-11-16T15:39:21.517Z,39
2022-11-16T15:40:26.164Z,54
2022-11-16T15:41:30.667Z,42
2022-11-16T15:42:35.465Z,45
2022-11-16T15:43:45.346Z,44
2022-11-16T15:44:44.787Z,46
2022-11-16T15:45:50.294Z,46
2022-11-16T15:46:55.824Z,41
2022-11-16T15:48:00.779Z,44
2022-11-16T15:49:05.424Z,43